sensor_id;sensor_type;location;lat;lon;timestamp;pressure;altitude;pressure_sealevel;temperature;humidity
3812;BME280;1921;49.368;11.068;2024-03-25T00:01:35;96670.19;;;5.71;91.80
3812;BME280;1921;49.368;11.068;2024-03-25T00:04:01;96699.72;;;5.85;91.82
3812;BME280;1921;49.368;11.068;2024-03-25T00:06:26;96669.56;;;5.69;91.33
3812;BME280;1921;49.368;11.068;2024-03-25T00:08:52;96742.94;;;6.15;91.97
3812;BME280;1921;49.368;11.068;2024-03-25T00:11:18;96710.53;;;5.97;91.80
3812;BME280;1921;49.368;11.068;2024-03-25T00:13:44;96731.03;;;5.98;91.79
3812;BME280;1921;49.368;11.068;2024-03-25T00:16:09;96719.84;;;6.06;91.70
3812;BME280;1921;49.368;11.068;2024-03-25T00:18:35;96687.97;;;5.74;91.30
3812;BME280;1921;49.368;11.068;2024-03-25T00:21:01;96745.63;;;5.91;91.58
3812;BME280;1921;49.368;11.068;2024-03-25T00:23:26;96699.47;;;5.63;92.03
3812;BME280;1921;49.368;11.068;2024-03-25T00:25:52;96701.06;;;5.73;91.34
3812;BME280;1921;49.368;11.068;2024-03-25T00:28:18;96746.91;;;5.95;92.17
3812;BME280;1921;49.368;11.068;2024-03-25T00:30:44;96657.78;;;5.58;90.77
3812;BME280;1921;49.368;11.068;2024-03-25T00:33:10;96718.31;;;5.80;90.59
3812;BME280;1921;49.368;11.068;2024-03-25T00:35:37;96691.28;;;5.83;90.39
3812;BME280;1921;49.368;11.068;2024-03-25T00:38:03;96729.97;;;6.15;90.20
3812;BME280;1921;49.368;11.068;2024-03-25T00:40:29;96732.56;;;6.15;89.27
3812;BME280;1921;49.368;11.068;2024-03-25T00:42:55;96698.50;;;6.04;88.96
3812;BME280;1921;49.368;11.068;2024-03-25T00:45:21;96692.97;;;6.07;89.01
3812;BME280;1921;49.368;11.068;2024-03-25T00:47:46;96713.00;;;6.13;88.55
3812;BME280;1921;49.368;11.068;2024-03-25T00:50:12;96701.13;;;5.96;87.87
3812;BME280;1921;49.368;11.068;2024-03-25T00:52:38;96654.03;;;5.69;88.19
3812;BME280;1921;49.368;11.068;2024-03-25T00:55:04;96725.88;;;6.21;88.19
3812;BME280;1921;49.368;11.068;2024-03-25T00:57:30;96704.19;;;5.99;88.08
3812;BME280;1921;49.368;11.068;2024-03-25T00:59:55;96734.75;;;6.27;87.94
3812;BME280;1921;49.368;11.068;2024-03-25T01:02:21;96620.91;;;5.64;87.42
3812;BME280;1921;49.368;11.068;2024-03-25T01:04:47;96700.06;;;6.13;87.29
3812;BME280;1921;49.368;11.068;2024-03-25T01:07:13;96686.06;;;5.99;87.11
3812;BME280;1921;49.368;11.068;2024-03-25T01:09:39;96681.25;;;5.88;87.01
3812;BME280;1921;49.368;11.068;2024-03-25T01:12:05;96694.63;;;6.00;87.36
3812;BME280;1921;49.368;11.068;2024-03-25T01:14:30;96674.81;;;5.92;86.96
3812;BME280;1921;49.368;11.068;2024-03-25T01:16:56;96716.69;;;6.18;87.22
3812;BME280;1921;49.368;11.068;2024-03-25T01:19:22;96729.31;;;6.22;87.06
3812;BME280;1921;49.368;11.068;2024-03-25T01:21:48;96699.31;;;6.04;86.60
3812;BME280;1921;49.368;11.068;2024-03-25T01:24:15;96707.53;;;6.08;86.97
3812;BME280;1921;49.368;11.068;2024-03-25T01:26:41;96701.50;;;6.15;86.36
3812;BME280;1921;49.368;11.068;2024-03-25T01:29:06;96695.97;;;6.18;85.46
3812;BME280;1921;49.368;11.068;2024-03-25T01:31:33;96681.00;;;6.06;86.65
3812;BME280;1921;49.368;11.068;2024-03-25T01:33:59;96672.97;;;6.01;85.85
3812;BME280;1921;49.368;11.068;2024-03-25T01:36:26;96733.13;;;6.26;85.38
3812;BME280;1921;49.368;11.068;2024-03-25T01:38:52;96666.06;;;5.93;85.04
3812;BME280;1921;49.368;11.068;2024-03-25T01:41:22;96673.19;;;5.91;85.37
3812;BME280;1921;49.368;11.068;2024-03-25T01:43:52;96699.50;;;5.94;86.16
3812;BME280;1921;49.368;11.068;2024-03-25T01:46:18;96667.38;;;5.81;85.61
3812;BME280;1921;49.368;11.068;2024-03-25T01:48:45;96679.63;;;5.95;85.53
3812;BME280;1921;49.368;11.068;2024-03-25T01:51:17;96720.59;;;6.14;85.79
3812;BME280;1921;49.368;11.068;2024-03-25T01:53:46;96704.47;;;6.04;85.86
3812;BME280;1921;49.368;11.068;2024-03-25T01:56:14;96678.13;;;6.01;85.77
3812;BME280;1921;49.368;11.068;2024-03-25T01:58:41;96657.22;;;5.79;85.68
3812;BME280;1921;49.368;11.068;2024-03-25T02:01:08;96690.34;;;6.15;85.11
3812;BME280;1921;49.368;11.068;2024-03-25T02:03:35;96693.47;;;6.02;85.40
3812;BME280;1921;49.368;11.068;2024-03-25T02:06:11;96730.19;;;6.06;86.12
3812;BME280;1921;49.368;11.068;2024-03-25T02:08:42;96669.91;;;5.66;86.22
3812;BME280;1921;49.368;11.068;2024-03-25T02:11:10;96679.09;;;5.68;86.30
3812;BME280;1921;49.368;11.068;2024-03-25T02:13:36;96679.34;;;5.82;85.64
3812;BME280;1921;49.368;11.068;2024-03-25T02:16:03;96678.63;;;5.96;85.05
3812;BME280;1921;49.368;11.068;2024-03-25T02:18:30;96723.94;;;6.23;84.61
3812;BME280;1921;49.368;11.068;2024-03-25T02:20:57;96708.09;;;5.95;85.55
3812;BME280;1921;49.368;11.068;2024-03-25T02:23:23;96664.06;;;5.72;84.26
3812;BME280;1921;49.368;11.068;2024-03-25T02:25:50;96727.34;;;6.24;84.72
3812;BME280;1921;49.368;11.068;2024-03-25T02:28:16;96741.19;;;6.31;84.58
3812;BME280;1921;49.368;11.068;2024-03-25T02:30:42;96735.16;;;6.15;84.68
3812;BME280;1921;49.368;11.068;2024-03-25T02:33:08;96694.16;;;5.96;84.34
3812;BME280;1921;49.368;11.068;2024-03-25T02:35:34;96754.63;;;6.34;84.59
3812;BME280;1921;49.368;11.068;2024-03-25T02:38:01;96683.38;;;5.92;84.73
3812;BME280;1921;49.368;11.068;2024-03-25T02:40:28;96669.97;;;5.81;85.27
3812;BME280;1921;49.368;11.068;2024-03-25T02:42:54;96714.38;;;6.24;84.75
3812;BME280;1921;49.368;11.068;2024-03-25T02:45:20;96549.50;;;5.09;83.82
3812;BME280;1921;49.368;11.068;2024-03-25T02:47:46;96686.13;;;5.83;85.56
3812;BME280;1921;49.368;11.068;2024-03-25T02:50:12;96728.69;;;6.11;85.44
3812;BME280;1921;49.368;11.068;2024-03-25T02:52:38;96748.22;;;6.22;85.35
3812;BME280;1921;49.368;11.068;2024-03-25T02:55:04;96685.44;;;5.97;84.93
3812;BME280;1921;49.368;11.068;2024-03-25T02:57:30;96713.34;;;6.10;84.62
3812;BME280;1921;49.368;11.068;2024-03-25T02:59:55;96691.41;;;5.89;85.02
3812;BME280;1921;49.368;11.068;2024-03-25T03:02:21;96740.66;;;6.12;85.20
3812;BME280;1921;49.368;11.068;2024-03-25T03:04:47;96709.47;;;5.75;86.49
3812;BME280;1921;49.368;11.068;2024-03-25T03:07:12;96741.53;;;6.05;85.89
3812;BME280;1921;49.368;11.068;2024-03-25T03:09:38;96764.50;;;6.00;86.44
3812;BME280;1921;49.368;11.068;2024-03-25T03:12:04;96712.84;;;5.75;87.02
3812;BME280;1921;49.368;11.068;2024-03-25T03:14:30;96685.91;;;5.61;85.76
3812;BME280;1921;49.368;11.068;2024-03-25T03:16:56;96684.06;;;5.78;86.07
3812;BME280;1921;49.368;11.068;2024-03-25T03:19:25;96739.44;;;6.00;86.00
3812;BME280;1921;49.368;11.068;2024-03-25T03:21:51;96697.50;;;5.74;86.00
3812;BME280;1921;49.368;11.068;2024-03-25T03:24:17;96747.81;;;6.02;85.90
3812;BME280;1921;49.368;11.068;2024-03-25T03:26:44;96719.75;;;5.83;85.55
3812;BME280;1921;49.368;11.068;2024-03-25T03:29:10;96690.28;;;5.61;85.92
3812;BME280;1921;49.368;11.068;2024-03-25T03:31:36;96722.75;;;5.72;86.04
3812;BME280;1921;49.368;11.068;2024-03-25T03:34:02;96703.41;;;5.51;86.85
3812;BME280;1921;49.368;11.068;2024-03-25T03:36:28;96718.97;;;5.43;87.41
3812;BME280;1921;49.368;11.068;2024-03-25T03:38:53;96730.75;;;5.46;87.90
3812;BME280;1921;49.368;11.068;2024-03-25T03:41:19;96707.69;;;5.28;88.43
3812;BME280;1921;49.368;11.068;2024-03-25T03:43:45;96730.94;;;5.36;88.42
3812;BME280;1921;49.368;11.068;2024-03-25T03:46:11;96771.44;;;5.52;88.92
3812;BME280;1921;49.368;11.068;2024-03-25T03:48:37;96733.88;;;5.25;89.52
3812;BME280;1921;49.368;11.068;2024-03-25T03:51:05;96744.22;;;5.25;89.49
3812;BME280;1921;49.368;11.068;2024-03-25T03:53:32;96754.38;;;5.26;89.59
3812;BME280;1921;49.368;11.068;2024-03-25T03:56:01;96696.50;;;4.72;89.98
3812;BME280;1921;49.368;11.068;2024-03-25T03:58:27;96756.34;;;5.16;89.67
3812;BME280;1921;49.368;11.068;2024-03-25T04:00:53;96732.94;;;5.09;89.09
3812;BME280;1921;49.368;11.068;2024-03-25T04:03:19;96743.13;;;5.11;89.26
3812;BME280;1921;49.368;11.068;2024-03-25T04:05:45;96789.44;;;5.37;89.11
3812;BME280;1921;49.368;11.068;2024-03-25T04:08:11;96753.63;;;5.09;88.89
3812;BME280;1921;49.368;11.068;2024-03-25T04:10:37;96751.63;;;5.28;87.93
3812;BME280;1921;49.368;11.068;2024-03-25T04:13:04;96751.03;;;5.18;88.42
3812;BME280;1921;49.368;11.068;2024-03-25T04:15:36;96728.28;;;5.05;88.34
3812;BME280;1921;49.368;11.068;2024-03-25T04:18:03;96809.63;;;5.42;88.38
3812;BME280;1921;49.368;11.068;2024-03-25T04:20:30;96719.91;;;4.86;88.45
3812;BME280;1921;49.368;11.068;2024-03-25T04:23:01;96802.00;;;5.48;88.50
3812;BME280;1921;49.368;11.068;2024-03-25T04:25:27;96739.88;;;5.09;88.41
3812;BME280;1921;49.368;11.068;2024-03-25T04:27:52;96746.66;;;5.18;87.73
3812;BME280;1921;49.368;11.068;2024-03-25T04:30:18;96771.66;;;5.26;87.89
3812;BME280;1921;49.368;11.068;2024-03-25T04:32:45;96748.47;;;5.09;87.88
3812;BME280;1921;49.368;11.068;2024-03-25T04:35:10;96777.16;;;5.31;87.39
3812;BME280;1921;49.368;11.068;2024-03-25T04:37:36;96815.25;;;5.45;87.36
3812;BME280;1921;49.368;11.068;2024-03-25T04:40:03;96752.78;;;5.09;86.83
3812;BME280;1921;49.368;11.068;2024-03-25T04:42:29;96798.47;;;5.41;86.58
3812;BME280;1921;49.368;11.068;2024-03-25T04:44:55;96788.50;;;5.22;87.78
3812;BME280;1921;49.368;11.068;2024-03-25T04:47:21;96789.47;;;5.12;87.60
3812;BME280;1921;49.368;11.068;2024-03-25T04:49:46;96774.31;;;4.93;88.90
3812;BME280;1921;49.368;11.068;2024-03-25T04:52:13;96816.94;;;5.22;88.59
3812;BME280;1921;49.368;11.068;2024-03-25T04:54:39;96757.19;;;4.84;89.06
3812;BME280;1921;49.368;11.068;2024-03-25T04:57:05;96779.47;;;4.93;88.83
3812;BME280;1921;49.368;11.068;2024-03-25T04:59:32;96780.44;;;5.00;89.32
3812;BME280;1921;49.368;11.068;2024-03-25T05:01:59;96770.91;;;4.93;88.81
3812;BME280;1921;49.368;11.068;2024-03-25T05:04:24;96814.97;;;5.24;89.07
3812;BME280;1921;49.368;11.068;2024-03-25T05:06:50;96787.84;;;5.11;88.52
3812;BME280;1921;49.368;11.068;2024-03-25T05:09:16;96748.63;;;4.83;88.23
3812;BME280;1921;49.368;11.068;2024-03-25T05:11:42;96710.53;;;4.53;88.24
3812;BME280;1921;49.368;11.068;2024-03-25T05:14:08;96791.88;;;5.06;87.85
3812;BME280;1921;49.368;11.068;2024-03-25T05:16:34;96822.41;;;5.19;87.30
3812;BME280;1921;49.368;11.068;2024-03-25T05:19:00;96788.97;;;5.01;87.72
3812;BME280;1921;49.368;11.068;2024-03-25T05:21:25;96840.66;;;5.25;87.59
3812;BME280;1921;49.368;11.068;2024-03-25T05:23:51;96759.31;;;4.72;87.21
3812;BME280;1921;49.368;11.068;2024-03-25T05:26:17;96806.75;;;4.88;86.86
3812;BME280;1921;49.368;11.068;2024-03-25T05:28:42;96835.50;;;4.93;87.09
3812;BME280;1921;49.368;11.068;2024-03-25T05:31:09;96817.22;;;4.70;87.54
3812;BME280;1921;49.368;11.068;2024-03-25T05:33:35;96788.78;;;4.45;88.15
3812;BME280;1921;49.368;11.068;2024-03-25T05:36:02;96802.38;;;4.47;88.17
3812;BME280;1921;49.368;11.068;2024-03-25T05:38:28;96837.06;;;4.61;88.20
3812;BME280;1921;49.368;11.068;2024-03-25T05:40:54;96823.31;;;4.44;88.72
3812;BME280;1921;49.368;11.068;2024-03-25T05:43:20;96667.47;;;3.46;90.33
3812;BME280;1921;49.368;11.068;2024-03-25T05:45:54;96780.53;;;4.17;90.22
3812;BME280;1921;49.368;11.068;2024-03-25T05:48:20;96814.59;;;4.29;91.49
3812;BME280;1921;49.368;11.068;2024-03-25T05:50:56;96820.75;;;4.44;91.78
3812;BME280;1921;49.368;11.068;2024-03-25T05:53:21;96811.69;;;4.40;92.56
3812;BME280;1921;49.368;11.068;2024-03-25T05:55:48;96800.72;;;4.46;92.77
3812;BME280;1921;49.368;11.068;2024-03-25T05:58:13;96819.63;;;4.71;93.24
3812;BME280;1921;49.368;11.068;2024-03-25T06:00:39;96804.50;;;4.84;90.66
3812;BME280;1921;49.368;11.068;2024-03-25T06:03:05;96764.47;;;4.72;89.84
3812;BME280;1921;49.368;11.068;2024-03-25T06:05:30;96841.31;;;5.35;90.65
3812;BME280;1921;49.368;11.068;2024-03-25T06:07:56;96805.75;;;5.21;90.07
3812;BME280;1921;49.368;11.068;2024-03-25T06:10:22;96834.63;;;5.65;89.94
3812;BME280;1921;49.368;11.068;2024-03-25T06:12:48;96808.94;;;5.56;87.20
3812;BME280;1921;49.368;11.068;2024-03-25T06:15:14;96864.59;;;6.07;87.67
3812;BME280;1921;49.368;11.068;2024-03-25T06:17:39;96821.31;;;5.93;85.65
3812;BME280;1921;49.368;11.068;2024-03-25T06:20:06;96820.59;;;6.15;88.34
3812;BME280;1921;49.368;11.068;2024-03-25T06:22:31;96820.66;;;6.30;87.02
3812;BME280;1921;49.368;11.068;2024-03-25T06:24:57;96851.84;;;6.68;82.47
3812;BME280;1921;49.368;11.068;2024-03-25T06:27:23;96825.03;;;6.61;82.79
3812;BME280;1921;49.368;11.068;2024-03-25T06:29:49;96868.34;;;6.98;81.54
3812;BME280;1921;49.368;11.068;2024-03-25T06:32:34;96832.47;;;6.87;81.58
3812;BME280;1921;49.368;11.068;2024-03-25T06:35:18;96855.38;;;7.21;80.15
3812;BME280;1921;49.368;11.068;2024-03-25T06:37:44;96802.78;;;6.89;79.20
3812;BME280;1921;49.368;11.068;2024-03-25T06:40:11;96850.44;;;7.26;77.80
3812;BME280;1921;49.368;11.068;2024-03-25T06:42:37;96839.75;;;7.29;77.48
3812;BME280;1921;49.368;11.068;2024-03-25T06:45:02;96870.75;;;7.60;75.64
3812;BME280;1921;49.368;11.068;2024-03-25T06:47:28;96815.09;;;7.33;77.42
3812;BME280;1921;49.368;11.068;2024-03-25T06:49:54;96871.66;;;7.67;72.71
3812;BME280;1921;49.368;11.068;2024-03-25T06:52:20;96801.09;;;7.19;72.83
3812;BME280;1921;49.368;11.068;2024-03-25T06:54:45;96840.50;;;7.67;73.99
3812;BME280;1921;49.368;11.068;2024-03-25T06:57:11;96827.81;;;7.72;72.19
3812;BME280;1921;49.368;11.068;2024-03-25T06:59:37;96853.50;;;7.97;69.42
3812;BME280;1921;49.368;11.068;2024-03-25T07:02:03;96811.88;;;7.75;71.47
3812;BME280;1921;49.368;11.068;2024-03-25T07:04:28;96844.03;;;7.89;69.81
3812;BME280;1921;49.368;11.068;2024-03-25T07:06:54;96847.16;;;7.99;71.83
3812;BME280;1921;49.368;11.068;2024-03-25T07:09:20;96815.91;;;8.07;71.69
3812;BME280;1921;49.368;11.068;2024-03-25T07:11:46;96863.44;;;8.52;69.47
3812;BME280;1921;49.368;11.068;2024-03-25T07:14:12;96839.91;;;8.39;63.46
3812;BME280;1921;49.368;11.068;2024-03-25T07:16:38;96818.13;;;8.40;67.52
3812;BME280;1921;49.368;11.068;2024-03-25T07:19:03;96881.13;;;9.00;63.92
3812;BME280;1921;49.368;11.068;2024-03-25T07:21:29;96786.84;;;8.33;62.68
3812;BME280;1921;49.368;11.068;2024-03-25T07:23:57;96814.75;;;8.61;63.50
3812;BME280;1921;49.368;11.068;2024-03-25T07:26:23;96841.72;;;8.81;62.71
3812;BME280;1921;49.368;11.068;2024-03-25T07:28:49;96851.59;;;8.86;61.08
3812;BME280;1921;49.368;11.068;2024-03-25T07:31:15;96878.88;;;9.18;62.13
3812;BME280;1921;49.368;11.068;2024-03-25T07:33:40;96842.38;;;9.26;59.29
3812;BME280;1921;49.368;11.068;2024-03-25T07:36:06;96877.41;;;9.30;58.58
3812;BME280;1921;49.368;11.068;2024-03-25T07:38:32;96829.34;;;9.26;59.58
3812;BME280;1921;49.368;11.068;2024-03-25T07:41:05;96825.66;;;9.14;56.54
3812;BME280;1921;49.368;11.068;2024-03-25T07:43:31;96819.03;;;9.39;56.06
3812;BME280;1921;49.368;11.068;2024-03-25T07:45:57;96860.34;;;9.77;56.74
3812;BME280;1921;49.368;11.068;2024-03-25T07:48:23;96864.59;;;9.85;55.29
3812;BME280;1921;49.368;11.068;2024-03-25T07:50:48;96865.53;;;9.49;56.36
3812;BME280;1921;49.368;11.068;2024-03-25T07:53:14;96869.84;;;9.91;56.47
3812;BME280;1921;49.368;11.068;2024-03-25T07:55:40;96881.19;;;10.12;54.62
3812;BME280;1921;49.368;11.068;2024-03-25T07:58:06;96886.72;;;9.95;54.22
3812;BME280;1921;49.368;11.068;2024-03-25T08:00:31;96901.63;;;10.08;55.07
3812;BME280;1921;49.368;11.068;2024-03-25T08:02:57;96840.81;;;9.60;53.58
3812;BME280;1921;49.368;11.068;2024-03-25T08:05:23;96894.66;;;10.22;54.25
3812;BME280;1921;49.368;11.068;2024-03-25T08:07:48;96905.25;;;10.48;54.58
3812;BME280;1921;49.368;11.068;2024-03-25T08:10:14;96890.72;;;10.74;53.69
3812;BME280;1921;49.368;11.068;2024-03-25T08:12:40;96873.09;;;10.83;52.27
3812;BME280;1921;49.368;11.068;2024-03-25T08:15:06;96880.94;;;10.96;51.25
3812;BME280;1921;49.368;11.068;2024-03-25T08:17:33;96873.72;;;10.91;50.42
3812;BME280;1921;49.368;11.068;2024-03-25T08:19:59;96890.56;;;10.89;51.69
3812;BME280;1921;49.368;11.068;2024-03-25T08:22:24;96847.13;;;10.55;52.39
3812;BME280;1921;49.368;11.068;2024-03-25T08:24:50;96847.00;;;10.83;51.41
3812;BME280;1921;49.368;11.068;2024-03-25T08:27:16;96846.00;;;10.77;49.74
3812;BME280;1921;49.368;11.068;2024-03-25T08:29:42;96853.66;;;11.12;51.74
3812;BME280;1921;49.368;11.068;2024-03-25T08:32:08;96813.34;;;11.14;49.77
3812;BME280;1921;49.368;11.068;2024-03-25T08:34:33;96902.09;;;12.07;48.35
3812;BME280;1921;49.368;11.068;2024-03-25T08:36:59;96920.56;;;12.32;50.98
3812;BME280;1921;49.368;11.068;2024-03-25T08:39:25;96865.88;;;12.24;49.45
3812;BME280;1921;49.368;11.068;2024-03-25T08:41:50;96879.91;;;12.87;45.55
3812;BME280;1921;49.368;11.068;2024-03-25T08:44:16;96793.25;;;12.71;43.88
3812;BME280;1921;49.368;11.068;2024-03-25T08:46:42;96840.28;;;12.77;44.59
3812;BME280;1921;49.368;11.068;2024-03-25T08:49:08;96880.34;;;12.78;45.21
3812;BME280;1921;49.368;11.068;2024-03-25T08:51:34;96884.69;;;12.52;47.25
3812;BME280;1921;49.368;11.068;2024-03-25T08:54:00;96831.91;;;12.69;44.95
3812;BME280;1921;49.368;11.068;2024-03-25T08:56:25;96844.09;;;12.81;44.07
3812;BME280;1921;49.368;11.068;2024-03-25T08:58:51;96822.38;;;12.81;43.75
3812;BME280;1921;49.368;11.068;2024-03-25T09:01:20;96854.13;;;13.23;42.80
3812;BME280;1921;49.368;11.068;2024-03-25T09:03:46;96840.91;;;12.73;43.41
3812;BME280;1921;49.368;11.068;2024-03-25T09:06:12;96902.69;;;12.80;44.39
3812;BME280;1921;49.368;11.068;2024-03-25T09:08:37;96814.03;;;12.07;46.69
3812;BME280;1921;49.368;11.068;2024-03-25T09:11:23;96878.13;;;12.23;47.13
3812;BME280;1921;49.368;11.068;2024-03-25T09:13:51;96818.13;;;11.77;44.72
3812;BME280;1921;49.368;11.068;2024-03-25T09:16:16;96848.06;;;11.88;45.95
3812;BME280;1921;49.368;11.068;2024-03-25T09:18:42;96796.84;;;11.47;45.58
3812;BME280;1921;49.368;11.068;2024-03-25T09:21:08;96875.59;;;11.57;47.60
3812;BME280;1921;49.368;11.068;2024-03-25T09:23:33;96869.97;;;11.33;47.30
3812;BME280;1921;49.368;11.068;2024-03-25T09:25:59;96813.47;;;10.73;48.44
3812;BME280;1921;49.368;11.068;2024-03-25T09:28:25;96858.63;;;10.80;48.93
3812;BME280;1921;49.368;11.068;2024-03-25T09:30:51;96855.03;;;10.74;49.29
3812;BME280;1921;49.368;11.068;2024-03-25T09:33:16;96859.50;;;11.00;50.01
3812;BME280;1921;49.368;11.068;2024-03-25T09:35:42;96877.38;;;11.23;47.79
3812;BME280;1921;49.368;11.068;2024-03-25T09:38:08;96847.25;;;10.94;46.24
3812;BME280;1921;49.368;11.068;2024-03-25T09:40:40;96850.69;;;11.35;45.67
3812;BME280;1921;49.368;11.068;2024-03-25T09:43:34;96836.63;;;11.82;45.93
3812;BME280;1921;49.368;11.068;2024-03-25T09:46:05;96831.53;;;13.28;43.02
3812;BME280;1921;49.368;11.068;2024-03-25T09:48:32;96826.13;;;14.28;39.93
3812;BME280;1921;49.368;11.068;2024-03-25T09:50:58;96796.09;;;14.61;41.95
3812;BME280;1921;49.368;11.068;2024-03-25T09:53:24;96840.09;;;15.84;37.67
3812;BME280;1921;49.368;11.068;2024-03-25T09:55:49;96853.28;;;16.36;35.44
3812;BME280;1921;49.368;11.068;2024-03-25T09:58:18;96872.16;;;17.30;35.86
3812;BME280;1921;49.368;11.068;2024-03-25T10:00:45;96822.69;;;18.05;34.95
3812;BME280;1921;49.368;11.068;2024-03-25T10:03:11;96808.94;;;18.46;32.24
3812;BME280;1921;49.368;11.068;2024-03-25T10:05:39;96813.38;;;19.17;33.07
3812;BME280;1921;49.368;11.068;2024-03-25T10:08:05;96841.22;;;18.97;31.49
3812;BME280;1921;49.368;11.068;2024-03-25T10:10:31;96786.47;;;17.78;33.58
3812;BME280;1921;49.368;11.068;2024-03-25T10:12:59;96806.31;;;18.02;33.68
3812;BME280;1921;49.368;11.068;2024-03-25T10:15:27;96796.88;;;18.28;34.62
3812;BME280;1921;49.368;11.068;2024-03-25T10:17:52;96798.25;;;18.36;30.41
3812;BME280;1921;49.368;11.068;2024-03-25T10:20:18;96781.31;;;17.88;31.14
3812;BME280;1921;49.368;11.068;2024-03-25T10:22:45;96791.34;;;18.08;31.10
3812;BME280;1921;49.368;11.068;2024-03-25T10:25:29;96820.56;;;18.45;31.49
3812;BME280;1921;49.368;11.068;2024-03-25T10:28:00;96772.66;;;18.37;31.69
3812;BME280;1921;49.368;11.068;2024-03-25T10:30:27;96792.13;;;19.06;31.40
3812;BME280;1921;49.368;11.068;2024-03-25T10:33:05;96781.66;;;19.17;29.38
3812;BME280;1921;49.368;11.068;2024-03-25T10:35:35;96812.66;;;20.53;29.14
3812;BME280;1921;49.368;11.068;2024-03-25T10:38:04;96804.38;;;19.82;30.33
3812;BME280;1921;49.368;11.068;2024-03-25T10:40:36;96757.53;;;19.08;31.05
3812;BME280;1921;49.368;11.068;2024-03-25T10:43:09;96759.09;;;18.28;30.61
3812;BME280;1921;49.368;11.068;2024-03-25T10:45:45;96809.97;;;18.89;31.97
3812;BME280;1921;49.368;11.068;2024-03-25T10:48:24;96774.72;;;18.08;29.77
3812;BME280;1921;49.368;11.068;2024-03-25T10:50:55;96786.19;;;17.63;28.65
3812;BME280;1921;49.368;11.068;2024-03-25T10:53:22;96774.66;;;15.99;31.50
3812;BME280;1921;49.368;11.068;2024-03-25T10:55:53;96735.84;;;16.75;30.84
3812;BME280;1921;49.368;11.068;2024-03-25T10:58:22;96736.91;;;17.63;30.48
3812;BME280;1921;49.368;11.068;2024-03-25T11:00:49;96796.84;;;17.85;31.64
3812;BME280;1921;49.368;11.068;2024-03-25T11:03:16;96768.97;;;17.38;30.92
3812;BME280;1921;49.368;11.068;2024-03-25T11:05:42;96765.44;;;17.49;32.79
3812;BME280;1921;49.368;11.068;2024-03-25T11:08:13;96778.25;;;17.41;32.27
3812;BME280;1921;49.368;11.068;2024-03-25T11:10:44;96768.81;;;16.37;31.93
3812;BME280;1921;49.368;11.068;2024-03-25T11:13:11;96762.16;;;16.06;35.69
3812;BME280;1921;49.368;11.068;2024-03-25T11:15:44;96770.06;;;16.75;32.39
3812;BME280;1921;49.368;11.068;2024-03-25T11:18:17;96761.16;;;16.93;33.07
3812;BME280;1921;49.368;11.068;2024-03-25T11:20:45;96744.81;;;15.94;33.24
3812;BME280;1921;49.368;11.068;2024-03-25T11:23:12;96735.38;;;15.22;35.04
3812;BME280;1921;49.368;11.068;2024-03-25T11:25:40;96754.06;;;15.02;36.54
3812;BME280;1921;49.368;11.068;2024-03-25T11:28:07;96771.53;;;14.85;34.86
3812;BME280;1921;49.368;11.068;2024-03-25T11:30:33;96723.81;;;14.88;34.52
3812;BME280;1921;49.368;11.068;2024-03-25T11:33:02;96746.44;;;15.71;34.58
3812;BME280;1921;49.368;11.068;2024-03-25T11:35:30;96706.72;;;15.68;34.37
3812;BME280;1921;49.368;11.068;2024-03-25T11:38:02;96727.25;;;16.68;33.11
3812;BME280;1921;49.368;11.068;2024-03-25T11:40:27;96689.19;;;17.26;32.73
3812;BME280;1921;49.368;11.068;2024-03-25T11:42:53;96713.78;;;15.32;34.21
3812;BME280;1921;49.368;11.068;2024-03-25T11:45:22;96768.91;;;17.00;33.63
3812;BME280;1921;49.368;11.068;2024-03-25T11:47:50;96729.84;;;17.30;31.26
3812;BME280;1921;49.368;11.068;2024-03-25T11:50:18;96703.66;;;14.59;35.34
3812;BME280;1921;49.368;11.068;2024-03-25T11:52:45;96702.94;;;16.61;32.93
3812;BME280;1921;49.368;11.068;2024-03-25T11:55:11;96750.47;;;17.33;31.83
3812;BME280;1921;49.368;11.068;2024-03-25T11:57:38;96712.00;;;17.15;31.26
3812;BME280;1921;49.368;11.068;2024-03-25T12:00:08;96748.75;;;18.21;30.15
3812;BME280;1921;49.368;11.068;2024-03-25T12:02:44;96704.38;;;18.45;29.88
3812;BME280;1921;49.368;11.068;2024-03-25T12:05:11;96717.59;;;18.72;29.28
3812;BME280;1921;49.368;11.068;2024-03-25T12:07:37;96693.78;;;18.67;28.80
3812;BME280;1921;49.368;11.068;2024-03-25T12:10:04;96672.13;;;18.43;29.31
3812;BME280;1921;49.368;11.068;2024-03-25T12:12:48;96694.06;;;19.45;28.84
3812;BME280;1921;49.368;11.068;2024-03-25T12:15:16;96714.13;;;19.83;27.90
3812;BME280;1921;49.368;11.068;2024-03-25T12:17:42;96710.69;;;17.73;29.02
3812;BME280;1921;49.368;11.068;2024-03-25T12:20:09;96706.75;;;19.01;27.25
3812;BME280;1921;49.368;11.068;2024-03-25T12:22:36;96685.78;;;18.94;27.31
3812;BME280;1921;49.368;11.068;2024-03-25T12:25:04;96670.16;;;18.88;28.11
3812;BME280;1921;49.368;11.068;2024-03-25T12:27:32;96653.94;;;17.93;29.17
3812;BME280;1921;49.368;11.068;2024-03-25T12:30:08;96668.47;;;18.17;29.03
3812;BME280;1921;49.368;11.068;2024-03-25T12:32:40;96701.78;;;16.57;28.96
3812;BME280;1921;49.368;11.068;2024-03-25T12:35:08;96694.34;;;17.16;30.20
3812;BME280;1921;49.368;11.068;2024-03-25T12:37:34;96658.69;;;17.91;30.35
3812;BME280;1921;49.368;11.068;2024-03-25T12:39:59;96643.63;;;18.72;29.12
3812;BME280;1921;49.368;11.068;2024-03-25T12:42:26;96640.56;;;19.28;29.12
3812;BME280;1921;49.368;11.068;2024-03-25T12:44:55;96664.19;;;20.02;28.98
3812;BME280;1921;49.368;11.068;2024-03-25T12:47:21;96614.91;;;17.90;27.50
3812;BME280;1921;49.368;11.068;2024-03-25T12:49:47;96647.47;;;16.51;29.31
3812;BME280;1921;49.368;11.068;2024-03-25T12:52:12;96666.09;;;14.46;32.09
3812;BME280;1921;49.368;11.068;2024-03-25T12:54:38;96623.00;;;15.76;30.94
3812;BME280;1921;49.368;11.068;2024-03-25T12:57:05;96683.31;;;14.12;34.26
3812;BME280;1921;49.368;11.068;2024-03-25T12:59:30;96645.41;;;16.53;33.70
3812;BME280;1921;49.368;11.068;2024-03-25T13:01:57;96618.00;;;18.41;29.01
3812;BME280;1921;49.368;11.068;2024-03-25T13:04:22;96600.44;;;18.89;26.84
3812;BME280;1921;49.368;11.068;2024-03-25T13:06:48;96636.34;;;19.89;26.67
3812;BME280;1921;49.368;11.068;2024-03-25T13:09:14;96609.69;;;20.22;28.14
3812;BME280;1921;49.368;11.068;2024-03-25T13:11:40;96599.63;;;20.29;25.89
3812;BME280;1921;49.368;11.068;2024-03-25T13:14:06;96605.44;;;20.21;25.80
3812;BME280;1921;49.368;11.068;2024-03-25T13:16:34;96627.47;;;20.52;26.47